createdAt,value
2016-09-14T00:01:25.580Z,952.65
2016-09-14T00:02:53.901Z,952.63
2016-09-14T00:03:26.076Z,952.65
2016-09-14T00:04:26.292Z,952.65
2016-09-14T00:06:29.345Z,952.68
2016-09-14T00:09:25.691Z,952.64
2016-09-14T00:10:22.856Z,952.64
2016-09-14T00:11:23.468Z,952.63
2016-09-14T00:13:22.763Z,952.64
2016-09-14T00:14:19.961Z,952.67
2016-09-14T00:15:23.438Z,952.66
2016-09-14T00:16:26.591Z,952.67
2016-09-14T00:17:22.768Z,952.68
2016-09-14T00:18:22.849Z,952.69
2016-09-14T00:19:22.928Z,952.70
2016-09-14T00:23:29.083Z,952.70
2016-09-14T00:29:22.141Z,952.62
2016-09-14T00:31:22.927Z,952.68
2016-09-14T00:32:26.163Z,952.64
2016-09-14T00:33:23.211Z,952.65
2016-09-14T00:34:28.886Z,952.61
2016-09-14T00:35:28.344Z,952.62
2016-09-14T00:36:27.661Z,952.62
2016-09-14T00:39:23.083Z,952.59
2016-09-14T00:40:26.278Z,952.55
2016-09-14T00:41:25.562Z,952.58
2016-09-14T00:42:24.538Z,952.59
2016-09-14T00:43:22.679Z,952.56
2016-09-14T00:44:23.220Z,952.57
2016-09-14T00:45:25.415Z,952.58
2016-09-14T00:46:17.860Z,952.57
2016-09-14T00:47:18.985Z,952.60
2016-09-14T00:50:30.214Z,952.59
2016-09-14T00:51:25.389Z,952.62
2016-09-14T00:52:25.606Z,952.57
2016-09-14T00:53:28.381Z,952.59
2016-09-14T00:54:26.633Z,952.56
2016-09-14T00:55:29.898Z,952.56
2016-09-14T00:56:26.073Z,952.53
2016-09-14T00:57:28.442Z,952.51
2016-09-14T00:58:25.649Z,952.52
2016-09-14T01:00:18.777Z,952.58
2016-09-14T01:03:30.240Z,952.58
2016-09-14T01:05:29.164Z,952.54
2016-09-14T01:06:27.403Z,952.51
2016-09-14T01:09:28.167Z,952.54
2016-09-14T01:11:28.156Z,952.58
2016-09-14T01:12:26.485Z,952.54
2016-09-14T01:13:29.680Z,952.55
2016-09-14T01:15:26.525Z,952.62
2016-09-14T01:16:28.860Z,952.62
2016-09-14T01:18:25.752Z,952.63
2016-09-14T01:20:25.644Z,952.57
2016-09-14T01:23:26.149Z,952.62
2016-09-14T01:24:26.234Z,952.57
2016-09-14T01:25:28.568Z,952.62
2016-09-14T01:26:22.795Z,952.62
2016-09-14T01:27:25.954Z,952.60
2016-09-14T01:28:22.760Z,952.60
2016-09-14T01:29:28.075Z,952.62
2016-09-14T01:30:26.311Z,952.63
2016-09-14T01:31:23.845Z,952.64
2016-09-14T01:32:25.995Z,952.64
2016-09-14T01:34:28.918Z,952.60
2016-09-14T01:36:22.768Z,952.60
2016-09-14T01:40:25.900Z,952.59
2016-09-14T01:42:16.832Z,952.56
2016-09-14T01:42:22.752Z,952.56
2016-09-14T01:43:26.000Z,952.54
2016-09-14T01:44:23.073Z,952.53
2016-09-14T01:45:23.279Z,952.57
2016-09-14T01:46:25.423Z,952.49
2016-09-14T01:48:25.386Z,952.55
2016-09-14T01:49:27.661Z,952.51
2016-09-14T01:50:23.220Z,952.49
2016-09-14T01:51:37.634Z,952.52
2016-09-14T01:52:25.832Z,952.49
2016-09-14T01:55:29.328Z,952.47
2016-09-14T01:57:26.262Z,952.53
2016-09-14T01:58:25.435Z,952.50
2016-09-14T02:00:45.386Z,952.53
2016-09-14T02:09:37.235Z,952.53
2016-09-14T02:10:22.415Z,952.55
2016-09-14T02:11:24.687Z,952.53
2016-09-14T02:13:22.796Z,952.52
2016-09-14T02:15:23.346Z,952.54
2016-09-14T02:18:25.542Z,952.65
2016-09-14T02:19:22.811Z,952.58
2016-09-14T02:22:26.130Z,952.64
2016-09-14T02:23:57.410Z,952.63
2016-09-14T02:24:24.728Z,952.61
2016-09-14T02:25:25.911Z,952.62
2016-09-14T02:27:25.711Z,952.62
2016-09-14T02:29:27.811Z,952.63
2016-09-14T02:31:25.665Z,952.70
2016-09-14T02:33:25.847Z,952.70
2016-09-14T02:34:23.038Z,952.69
2016-09-14T02:35:23.266Z,952.69
2016-09-14T02:37:26.191Z,952.70
2016-09-14T02:38:25.405Z,952.67
2016-09-14T02:39:22.905Z,952.69
2016-09-14T02:40:28.262Z,952.71
2016-09-14T02:41:29.601Z,952.68
2016-09-14T02:43:26.332Z,952.70
2016-09-14T02:44:27.741Z,952.69
2016-09-14T02:46:25.644Z,952.68
2016-09-14T02:47:25.826Z,952.76
2016-09-14T02:48:26.014Z,952.77
2016-09-14T02:49:26.184Z,952.81
2016-09-14T02:50:22.322Z,952.82
2016-09-14T02:51:22.437Z,952.86
2016-09-14T02:53:22.888Z,952.77
2016-09-14T02:56:25.687Z,952.74
2016-09-14T02:58:25.820Z,952.70
2016-09-14T03:00:22.654Z,952.68
2016-09-14T03:01:22.808Z,952.71
2016-09-14T03:03:25.946Z,952.68
2016-09-14T03:05:25.517Z,952.76
2016-09-14T03:06:17.539Z,952.71
2016-09-14T03:07:29.374Z,952.74
2016-09-14T03:08:22.463Z,952.70
2016-09-14T03:09:22.708Z,952.69
2016-09-14T03:11:00.714Z,952.73
2016-09-14T03:11:25.511Z,952.64
2016-09-14T03:12:25.699Z,952.69
2016-09-14T03:13:25.894Z,952.69
2016-09-14T03:15:25.738Z,952.71
2016-09-14T03:18:23.237Z,952.68
2016-09-14T03:21:27.905Z,952.69
2016-09-14T03:22:26.127Z,952.71
2016-09-14T03:24:23.769Z,952.69
2016-09-14T03:26:26.053Z,952.72
2016-09-14T03:27:23.564Z,952.70
2016-09-14T03:29:41.143Z,952.74
2016-09-14T03:30:30.486Z,952.71
2016-09-14T03:31:28.811Z,952.71
2016-09-14T03:34:27.837Z,952.71
2016-09-14T03:36:27.926Z,952.70
2016-09-14T03:37:23.164Z,952.70
2016-09-14T03:39:26.027Z,952.65
2016-09-14T03:40:29.804Z,952.64
2016-09-14T03:42:30.543Z,952.67
2016-09-14T03:43:22.715Z,952.72
2016-09-14T03:44:31.581Z,952.69
2016-09-14T03:45:29.452Z,952.71
2016-09-14T03:47:26.246Z,952.68
2016-09-14T03:49:26.033Z,952.69
2016-09-14T03:50:31.931Z,952.70
2016-09-14T03:51:26.127Z,952.68
2016-09-14T03:52:26.315Z,952.65
2016-09-14T03:53:25.485Z,952.65
2016-09-14T03:56:23.208Z,952.66
2016-09-14T03:57:25.432Z,952.69
2016-09-14T03:58:22.541Z,952.70
2016-09-14T03:59:25.791Z,952.72
2016-09-14T04:00:23.263Z,952.73
2016-09-14T04:01:26.486Z,952.75
2016-09-14T04:02:22.582Z,952.77
2016-09-14T04:03:22.760Z,952.76
2016-09-14T04:06:26.688Z,952.71
2016-09-14T04:07:30.124Z,952.71
2016-09-14T04:08:23.211Z,952.71
2016-09-14T04:09:25.495Z,952.74
2016-09-14T04:10:29.800Z,952.72
2016-09-14T04:11:28.139Z,952.74
2016-09-14T04:12:25.381Z,952.75
2016-09-14T04:13:22.453Z,952.74
2016-09-14T04:16:32.911Z,952.76
2016-09-14T04:17:24.113Z,952.74
2016-09-14T04:19:28.059Z,952.78
2016-09-14T04:21:30.143Z,952.76
2016-09-14T04:22:26.299Z,952.73
2016-09-14T04:24:27.501Z,952.76
2016-09-14T04:25:35.133Z,952.79
2016-09-14T04:26:22.644Z,952.77
2016-09-14T04:29:34.870Z,952.76
2016-09-14T04:31:36.918Z,952.77
2016-09-14T04:35:28.038Z,952.86
2016-09-14T04:36:28.119Z,952.91
2016-09-14T04:37:26.339Z,952.87
2016-09-14T04:38:25.590Z,952.91
2016-09-14T04:39:25.763Z,952.93
2016-09-14T04:40:28.479Z,952.90
2016-09-14T04:41:27.878Z,952.91
2016-09-14T04:42:23.491Z,952.89
2016-09-14T04:43:27.820Z,952.92
2016-09-14T04:44:26.091Z,952.92
2016-09-14T04:46:25.904Z,952.90
2016-09-14T04:47:22.669Z,952.90
2016-09-14T04:48:27.982Z,952.90
2016-09-14T04:50:25.919Z,952.89
2016-09-14T04:51:28.293Z,952.91
2016-09-14T04:57:22.696Z,952.91
2016-09-14T04:58:28.040Z,952.96
2016-09-14T05:00:27.967Z,952.95
2016-09-14T05:01:26.172Z,952.96
2016-09-14T05:02:25.641Z,952.94
2016-09-14T05:03:25.835Z,952.95
2016-09-14T05:04:28.136Z,952.88
2016-09-14T05:08:26.776Z,952.91
2016-09-14T05:09:28.425Z,952.92
2016-09-14T05:10:52.007Z,952.92
2016-09-14T05:11:27.178Z,952.91
2016-09-14T05:12:22.740Z,952.94
2016-09-14T05:14:28.697Z,952.94
2016-09-14T05:15:25.889Z,952.94
2016-09-14T05:18:17.835Z,952.90
2016-09-14T05:19:28.274Z,952.93
2016-09-14T05:20:25.476Z,952.93
2016-09-14T05:22:26.247Z,952.96
2016-09-14T05:23:25.408Z,952.94
2016-09-14T05:24:25.785Z,952.95
2016-09-14T05:25:28.092Z,952.94
2016-09-14T05:26:26.265Z,952.95
2016-09-14T05:27:19.449Z,952.95
2016-09-14T05:28:25.632Z,952.96
2016-09-14T05:29:18.736Z,952.94
2016-09-14T05:31:17.469Z,952.94
2016-09-14T05:32:18.022Z,952.94
2016-09-14T05:33:28.403Z,952.94
2016-09-14T05:35:26.246Z,952.94
2016-09-14T05:36:24.853Z,952.96
2016-09-14T05:39:18.654Z,952.94
2016-09-14T05:41:28.979Z,952.95
2016-09-14T05:43:25.802Z,952.93
2016-09-14T05:44:24.866Z,952.94
2016-09-14T05:47:24.394Z,952.92
2016-09-14T05:48:26.685Z,952.92
2016-09-14T05:50:31.623Z,952.93
2016-09-14T05:52:18.354Z,952.93
2016-09-14T05:53:25.536Z,952.88
2016-09-14T05:55:29.462Z,952.86
2016-09-14T05:56:30.028Z,952.88
2016-09-14T05:57:25.607Z,952.88
2016-09-14T05:58:22.784Z,952.85
2016-09-14T05:59:26.044Z,952.83
2016-09-14T06:00:19.050Z,952.82
2016-09-14T06:01:19.200Z,952.79
2016-09-14T06:02:27.507Z,952.81
2016-09-14T06:03:25.751Z,952.81
2016-09-14T06:04:18.872Z,952.79
2016-09-14T06:05:18.854Z,952.74
2016-09-14T06:07:25.687Z,952.77
2016-09-14T06:08:25.879Z,952.75
2016-09-14T06:09:25.053Z,952.80
2016-09-14T06:11:25.283Z,952.78
2016-09-14T06:12:25.477Z,952.80
2016-09-14T06:13:17.600Z,952.83
2016-09-14T06:14:57.681Z,952.80
2016-09-14T06:15:24.783Z,952.82
2016-09-14T06:16:28.051Z,952.82
2016-09-14T06:17:19.288Z,952.78
2016-09-14T06:18:27.470Z,952.78
2016-09-14T06:19:25.184Z,952.85
2016-09-14T06:20:25.391Z,952.84
2016-09-14T06:22:23.502Z,952.83
2016-09-14T06:23:24.038Z,952.82
2016-09-14T06:25:18.102Z,952.83
2016-09-14T06:26:26.261Z,952.85
2016-09-14T06:28:28.213Z,952.89
2016-09-14T06:29:17.440Z,952.88
2016-09-14T06:31:25.687Z,952.87
2016-09-14T06:32:25.882Z,952.87
2016-09-14T06:33:27.075Z,952.87
2016-09-14T06:35:25.937Z,952.85
2016-09-14T06:36:25.601Z,952.85
2016-09-14T06:37:23.782Z,952.87
2016-09-14T06:38:27.055Z,952.86
2016-09-14T06:39:23.021Z,952.86
2016-09-14T06:40:26.195Z,952.87
2016-09-14T06:45:24.966Z,952.85
2016-09-14T06:46:27.156Z,952.90
2016-09-14T06:47:26.339Z,952.92
2016-09-14T06:48:27.616Z,952.93
2016-09-14T06:49:30.199Z,952.90
2016-09-14T06:50:24.788Z,952.90
2016-09-14T06:51:26.033Z,952.89
2016-09-14T06:52:26.233Z,952.92
2016-09-14T06:53:18.134Z,952.92
2016-09-14T06:54:20.310Z,952.91
2016-09-14T06:55:25.587Z,952.90
2016-09-14T06:56:27.913Z,952.87
2016-09-14T06:57:22.917Z,952.89
2016-09-14T06:58:26.505Z,952.90
2016-09-14T06:59:25.754Z,952.97
2016-09-14T07:01:18.641Z,952.95
2016-09-14T07:04:25.499Z,953.00
2016-09-14T07:06:26.245Z,952.97
2016-09-14T07:07:27.848Z,952.94
2016-09-14T07:09:25.438Z,952.97
2016-09-14T07:14:26.141Z,953.00
2016-09-14T07:15:26.411Z,952.96
2016-09-14T07:17:26.188Z,952.94
2016-09-14T07:18:43.962Z,952.92
2016-09-14T07:19:12.253Z,952.94
2016-09-14T07:20:18.189Z,952.95
2016-09-14T07:21:19.405Z,952.93
2016-09-14T07:22:12.050Z,952.95
2016-09-14T07:23:22.673Z,952.97
2016-09-14T07:24:25.870Z,953.00
2016-09-14T07:25:12.873Z,952.96
2016-09-14T07:26:17.580Z,952.98
2016-09-14T07:27:22.899Z,953.03
2016-09-14T07:31:15.305Z,952.94
2016-09-14T07:31:38.703Z,952.93
2016-09-14T07:31:39.264Z,952.96
2016-09-14T07:32:28.392Z,952.97
2016-09-14T07:33:26.460Z,952.94
2016-09-14T07:34:18.271Z,952.93
2016-09-14T07:35:14.413Z,952.93
2016-09-14T07:36:18.121Z,952.93
2016-09-14T07:37:12.584Z,952.95
2016-09-14T07:38:18.075Z,952.96
2016-09-14T07:39:18.064Z,952.99
2016-09-14T07:40:17.500Z,952.97
2016-09-14T07:41:17.681Z,952.98
2016-09-14T07:42:17.737Z,952.98
2016-09-14T07:43:22.542Z,953.01
2016-09-14T07:45:20.072Z,953.02
2016-09-14T07:46:18.479Z,952.99
2016-09-14T07:47:15.618Z,953.00
2016-09-14T07:48:18.001Z,953.00
2016-09-14T07:50:21.233Z,952.99
2016-09-14T07:51:22.953Z,952.94
2016-09-14T07:52:17.950Z,952.97
2016-09-14T07:53:16.969Z,952.96
2016-09-14T07:54:17.971Z,952.97
2016-09-14T07:55:17.274Z,952.95
2016-09-14T07:56:18.116Z,952.94
2016-09-14T07:57:19.715Z,952.92
2016-09-14T07:58:20.113Z,952.98
2016-09-14T07:59:21.856Z,952.95
2016-09-14T08:00:15.708Z,952.98
2016-09-14T08:01:25.030Z,952.97
2016-09-14T08:02:17.618Z,953.03
2016-09-14T08:03:12.258Z,953.01
2016-09-14T08:04:11.844Z,953.01
2016-09-14T08:05:09.097Z,953.04
2016-09-14T08:06:12.525Z,952.99
2016-09-14T08:07:11.598Z,953.02
2016-09-14T08:08:09.835Z,953.00
2016-09-14T08:09:13.631Z,952.99
2016-09-14T08:10:15.175Z,952.97
2016-09-14T08:11:17.066Z,952.99
2016-09-14T08:12:17.872Z,952.97
2016-09-14T08:13:18.159Z,952.98
2016-09-14T08:14:17.004Z,953.00
2016-09-14T08:15:17.971Z,952.98
2016-09-14T08:16:26.242Z,953.01
2016-09-14T08:17:13.175Z,953.03
2016-09-14T08:18:12.859Z,953.02
2016-09-14T08:19:28.388Z,953.01
2016-09-14T08:20:16.700Z,953.07
2016-09-14T08:21:18.699Z,953.04
2016-09-14T08:22:14.952Z,953.07
2016-09-14T08:23:23.374Z,953.10
2016-09-14T08:24:18.653Z,953.09
2016-09-14T08:25:21.929Z,953.06
2016-09-14T08:26:21.529Z,953.07
2016-09-14T08:27:17.471Z,953.04
2016-09-14T08:28:18.156Z,953.10
2016-09-14T08:29:12.647Z,953.09
2016-09-14T08:30:14.293Z,953.08
2016-09-14T08:31:17.143Z,953.11
2016-09-14T08:32:16.444Z,953.06
2016-09-14T08:33:17.730Z,953.08
2016-09-14T08:34:13.006Z,953.10
2016-09-14T08:35:18.414Z,953.14
2016-09-14T08:36:17.552Z,953.13
2016-09-14T08:37:18.050Z,953.12
2016-09-14T08:38:24.337Z,953.16
2016-09-14T08:39:22.887Z,953.14
2016-09-14T08:40:38.005Z,953.07
2016-09-14T08:42:18.250Z,953.09
2016-09-14T08:43:26.038Z,953.16
2016-09-14T08:44:18.454Z,953.14
2016-09-14T08:45:20.408Z,953.15
2016-09-14T08:46:27.058Z,953.12
2016-09-14T08:49:31.883Z,953.15
2016-09-14T08:50:26.152Z,953.16
2016-09-14T08:51:25.193Z,953.12
2016-09-14T08:53:23.163Z,953.15
2016-09-14T08:54:23.139Z,953.20
2016-09-14T08:55:28.238Z,953.19
2016-09-14T08:56:19.182Z,953.17
2016-09-14T08:57:28.386Z,953.16
2016-09-14T09:00:27.661Z,953.17
2016-09-14T09:01:18.966Z,953.14
2016-09-14T09:02:24.173Z,953.19
2016-09-14T09:03:23.531Z,953.17
2016-09-14T09:04:28.287Z,953.17
2016-09-14T09:05:22.646Z,953.16
2016-09-14T09:09:19.204Z,953.18
2016-09-14T09:11:24.431Z,953.19
2016-09-14T09:13:32.996Z,953.21
2016-09-14T09:16:22.181Z,953.24
2016-09-14T09:17:23.623Z,953.21
2016-09-14T09:18:26.710Z,953.21
2016-09-14T09:19:30.221Z,953.20
2016-09-14T09:21:37.581Z,953.21
2016-09-14T09:24:17.973Z,953.21
2016-09-14T09:25:24.512Z,953.22
2016-09-14T09:26:18.448Z,953.20
2016-09-14T09:27:11.457Z,953.24
2016-09-14T09:28:13.605Z,953.24
2016-09-14T09:29:16.898Z,953.21
2016-09-14T09:30:18.136Z,953.18
2016-09-14T09:31:18.296Z,953.20
2016-09-14T09:32:17.655Z,953.18
2016-09-14T09:33:17.936Z,953.21
2016-09-14T09:34:18.332Z,953.16
2016-09-14T09:35:27.473Z,953.17
2016-09-14T09:36:30.159Z,953.21
2016-09-14T09:37:24.630Z,953.16
2016-09-14T09:38:18.454Z,953.20
2016-09-14T09:39:17.729Z,953.15
2016-09-14T09:40:13.187Z,953.17
2016-09-14T09:41:13.538Z,953.16
2016-09-14T09:42:18.224Z,953.15
2016-09-14T09:43:17.404Z,953.13
2016-09-14T09:44:18.011Z,953.14
2016-09-14T09:45:26.082Z,953.11
2016-09-14T09:46:16.273Z,953.13
2016-09-14T09:47:17.786Z,953.16
2016-09-14T09:48:12.825Z,953.16
2016-09-14T09:49:28.091Z,953.21
2016-09-14T09:50:23.249Z,953.16
2016-09-14T09:51:18.702Z,953.19
2016-09-14T09:52:17.251Z,953.14
2016-09-14T09:53:14.807Z,953.15
2016-09-14T09:54:17.967Z,953.20
2016-09-14T09:55:17.879Z,953.24
2016-09-14T09:56:22.457Z,953.28
2016-09-14T09:57:14.984Z,953.26
2016-09-14T09:58:18.556Z,953.23
2016-09-14T09:59:18.463Z,953.22
2016-09-14T10:00:22.594Z,953.22
2016-09-14T10:01:13.396Z,953.23
2016-09-14T10:02:17.046Z,953.21
2016-09-14T10:03:13.081Z,953.23
2016-09-14T10:04:26.871Z,953.26
2016-09-14T10:05:17.971Z,953.24
2016-09-14T10:06:18.527Z,953.23
2016-09-14T10:07:18.295Z,953.27
2016-09-14T10:08:22.659Z,953.22
2016-09-14T10:09:16.933Z,953.26
2016-09-14T10:10:23.495Z,953.28
2016-09-14T10:11:21.961Z,953.28
2016-09-14T10:12:12.595Z,953.26
2016-09-14T10:13:13.937Z,953.28
2016-09-14T10:14:17.621Z,953.26
2016-09-14T10:15:17.613Z,953.24
2016-09-14T10:16:12.931Z,953.26
2016-09-14T10:17:27.246Z,953.32
2016-09-14T10:18:16.439Z,953.26
2016-09-14T10:19:17.999Z,953.24
2016-09-14T10:20:13.066Z,953.23
2016-09-14T10:21:26.817Z,953.25
2016-09-14T10:22:15.636Z,953.21
2016-09-14T10:23:19.979Z,953.25
2016-09-14T10:24:17.587Z,953.24
2016-09-14T10:25:15.642Z,953.24
2016-09-14T10:26:17.097Z,953.24
2016-09-14T10:27:19.906Z,953.24
2016-09-14T10:28:24.894Z,953.23
2016-09-14T10:30:17.998Z,953.28
2016-09-14T10:31:18.877Z,953.23
2016-09-14T10:32:22.756Z,953.25
2016-09-14T10:33:26.400Z,953.21
2016-09-14T10:34:17.467Z,953.21
2016-09-14T10:35:18.572Z,953.19
2016-09-14T10:36:17.907Z,953.22
2016-09-14T10:37:24.380Z,953.15
2016-09-14T10:38:14.720Z,953.15
2016-09-14T10:39:15.527Z,953.10
2016-09-14T10:40:18.173Z,953.13
2016-09-14T10:41:17.795Z,953.15
2016-09-14T10:42:32.638Z,953.11
2016-09-14T10:43:14.562Z,953.13
2016-09-14T10:44:19.274Z,953.14
2016-09-14T10:45:21.776Z,953.16
2016-09-14T10:46:13.861Z,953.15
2016-09-14T10:47:16.940Z,953.13
2016-09-14T10:48:12.130Z,953.15
2016-09-14T10:49:23.609Z,953.18
2016-09-14T10:50:27.653Z,953.18
2016-09-14T10:51:17.441Z,953.16
2016-09-14T10:52:18.685Z,953.16
2016-09-14T10:53:25.891Z,953.13
2016-09-14T10:54:31.237Z,953.13
2016-09-14T10:55:19.846Z,953.13
2016-09-14T10:56:17.773Z,953.12
2016-09-14T10:57:23.458Z,953.16
2016-09-14T10:58:13.537Z,953.11
2016-09-14T10:59:17.380Z,953.14
2016-09-14T11:00:17.845Z,953.14
2016-09-14T11:01:27.388Z,953.17
2016-09-14T11:02:17.645Z,953.17
2016-09-14T11:03:17.848Z,953.16
2016-09-14T11:04:16.431Z,953.14
2016-09-14T11:05:22.883Z,953.13
2016-09-14T11:06:14.583Z,953.13
2016-09-14T11:07:17.613Z,953.16
2016-09-14T11:08:11.696Z,953.10
2016-09-14T11:09:28.556Z,953.15
2016-09-14T11:10:18.106Z,953.11
2016-09-14T11:11:18.777Z,953.11
2016-09-14T11:12:18.406Z,953.15
2016-09-14T11:14:14.162Z,953.13
2016-09-14T11:15:18.481Z,953.18
2016-09-14T11:16:19.865Z,953.14
2016-09-14T11:17:12.442Z,953.15
2016-09-14T11:18:16.854Z,953.16
2016-09-14T11:19:16.036Z,953.22
2016-09-14T11:20:22.277Z,953.19
2016-09-14T11:21:12.165Z,953.19
2016-09-14T11:23:18.471Z,953.21
2016-09-14T11:24:17.328Z,953.18
2016-09-14T11:25:18.442Z,953.15
2016-09-14T11:26:17.974Z,953.16
2016-09-14T11:27:13.641Z,953.16
2016-09-14T11:28:13.854Z,953.14
2016-09-14T11:29:17.967Z,953.11
2016-09-14T11:30:12.974Z,953.14
2016-09-14T11:31:13.045Z,953.13
2016-09-14T11:32:15.856Z,953.08
2016-09-14T11:33:17.995Z,953.13
2016-09-14T11:34:16.610Z,953.09
2016-09-14T11:35:14.209Z,953.09
2016-09-14T11:36:14.251Z,953.10
2016-09-14T11:37:16.969Z,953.08
2016-09-14T11:38:17.822Z,953.11
2016-09-14T11:39:13.010Z,953.08
2016-09-14T11:40:13.873Z,953.10
2016-09-14T11:41:15.884Z,953.02
2016-09-14T11:42:22.688Z,953.07
2016-09-14T11:43:12.526Z,953.04
2016-09-14T11:44:15.901Z,953.02
2016-09-14T11:45:17.169Z,952.99
2016-09-14T11:46:12.639Z,952.96
2016-09-14T11:47:13.465Z,953.00
2016-09-14T11:48:18.193Z,953.00
2016-09-14T11:49:14.511Z,953.00
2016-09-14T11:50:22.785Z,952.98
2016-09-14T11:51:17.378Z,952.95
2016-09-14T11:52:17.650Z,952.95
2016-09-14T11:53:18.285Z,952.94
2016-09-14T11:54:12.195Z,952.91
2016-09-14T11:55:11.719Z,952.92
2016-09-14T11:56:14.172Z,952.91
2016-09-14T11:57:18.972Z,952.95
2016-09-14T11:58:17.148Z,952.92
2016-09-14T11:59:18.915Z,952.90
2016-09-14T12:00:16.015Z,952.88
2016-09-14T12:01:17.026Z,952.91
2016-09-14T12:02:20.084Z,952.85
2016-09-14T12:03:17.307Z,952.86
2016-09-14T12:04:17.550Z,952.86
2016-09-14T12:05:17.519Z,952.85
2016-09-14T12:06:17.393Z,952.87
2016-09-14T12:07:19.128Z,952.83
2016-09-14T12:08:28.471Z,952.84
2016-09-14T12:09:13.497Z,952.83
2016-09-14T12:10:15.724Z,952.82
2016-09-14T12:11:17.349Z,952.79
2016-09-14T12:12:17.000Z,952.83
2016-09-14T12:13:14.265Z,952.82
2016-09-14T12:14:17.408Z,952.81
2016-09-14T12:15:18.663Z,952.78
2016-09-14T12:16:22.855Z,952.80
2016-09-14T12:17:16.990Z,952.79
2016-09-14T12:18:11.744Z,952.75
2016-09-14T12:19:16.505Z,952.75
2016-09-14T12:20:12.173Z,952.77
2016-09-14T12:21:13.208Z,952.76
2016-09-14T12:22:16.828Z,952.79
2016-09-14T12:23:17.331Z,952.81
2016-09-14T12:24:16.403Z,952.80
2016-09-14T12:25:16.996Z,952.80
2016-09-14T12:26:17.691Z,952.78
2016-09-14T12:27:17.327Z,952.81
2016-09-14T12:28:18.432Z,952.74
2016-09-14T12:29:12.554Z,952.76
2016-09-14T12:30:15.411Z,952.82
2016-09-14T12:31:17.374Z,952.76
2016-09-14T12:32:17.640Z,952.81
2016-09-14T12:33:11.467Z,952.77
2016-09-14T12:34:16.773Z,952.79
2016-09-14T12:35:15.152Z,952.77
2016-09-14T12:36:15.055Z,952.79
2016-09-14T12:37:17.108Z,952.80
2016-09-14T12:38:12.602Z,952.78
2016-09-14T12:39:17.946Z,952.76
2016-09-14T12:40:12.466Z,952.75
2016-09-14T12:41:12.441Z,952.69
2016-09-14T12:42:17.959Z,952.77
2016-09-14T12:43:16.990Z,952.71
2016-09-14T12:44:15.419Z,952.69
2016-09-14T12:45:12.416Z,952.66
2016-09-14T12:46:16.549Z,952.66
2016-09-14T12:47:18.005Z,952.66
2016-09-14T12:48:17.149Z,952.66
2016-09-14T12:49:12.996Z,952.66
2016-09-14T12:50:16.996Z,952.67
2016-09-14T12:51:12.157Z,952.67
2016-09-14T12:52:12.711Z,952.66
2016-09-14T12:53:15.074Z,952.68
2016-09-14T12:54:17.743Z,952.67
2016-09-14T12:55:18.501Z,952.65
2016-09-14T12:56:19.599Z,952.61
2016-09-14T12:57:12.838Z,952.60
2016-09-14T12:58:15.223Z,952.62
2016-09-14T12:59:16.139Z,952.60
2016-09-14T13:00:16.853Z,952.57
2016-09-14T13:01:12.979Z,952.65
2016-09-14T13:02:13.704Z,952.61
2016-09-14T13:03:18.516Z,952.58
2016-09-14T13:04:17.286Z,952.57
2016-09-14T13:05:12.700Z,952.52
2016-09-14T13:06:13.970Z,952.51
2016-09-14T13:07:17.219Z,952.48
2016-09-14T13:08:19.482Z,952.50
2016-09-14T13:09:23.008Z,952.48
2016-09-14T13:10:13.823Z,952.47
2016-09-14T13:11:17.729Z,952.47
2016-09-14T13:12:11.994Z,952.45
2016-09-14T13:13:15.000Z,952.49
2016-09-14T13:14:14.937Z,952.48
2016-09-14T13:15:12.547Z,952.48
2016-09-14T13:16:12.201Z,952.47
2016-09-14T13:17:12.376Z,952.49
2016-09-14T13:18:15.036Z,952.51
2016-09-14T13:19:17.047Z,952.48
2016-09-14T13:20:12.516Z,952.53
2016-09-14T13:21:12.599Z,952.48
2016-09-14T13:22:14.155Z,952.50
2016-09-14T13:23:17.908Z,952.49
2016-09-14T13:24:12.677Z,952.44
2016-09-14T13:25:12.157Z,952.45
2016-09-14T13:26:15.004Z,952.46
2016-09-14T13:27:16.960Z,952.47
2016-09-14T13:28:21.664Z,952.46
2016-09-14T13:29:12.320Z,952.44
2016-09-14T13:30:14.926Z,952.43
2016-09-14T13:31:15.343Z,952.39
2016-09-14T13:32:13.098Z,952.41
2016-09-14T13:33:17.796Z,952.38
2016-09-14T13:34:16.963Z,952.41
2016-09-14T13:35:17.671Z,952.37
2016-09-14T13:36:17.639Z,952.38
2016-09-14T13:37:17.571Z,952.38
2016-09-14T13:38:16.780Z,952.44
2016-09-14T13:39:13.149Z,952.41
2016-09-14T13:40:12.438Z,952.40
2016-09-14T13:41:13.928Z,952.42
2016-09-14T13:42:16.176Z,952.41
2016-09-14T13:43:18.017Z,952.38
2016-09-14T13:44:13.695Z,952.42
2016-09-14T13:45:17.788Z,952.42
2016-09-14T13:46:16.860Z,952.38
2016-09-14T13:47:11.800Z,952.38
2016-09-14T13:48:13.099Z,952.41
2016-09-14T13:49:15.563Z,952.37
2016-09-14T13:50:17.430Z,952.39
2016-09-14T13:51:17.407Z,952.42
2016-09-14T13:52:17.430Z,952.36
2016-09-14T13:53:17.510Z,952.37
2016-09-14T13:54:16.120Z,952.36
2016-09-14T13:55:12.603Z,952.29
2016-09-14T13:56:14.282Z,952.28
2016-09-14T13:57:16.972Z,952.25
2016-09-14T13:58:18.609Z,952.31
2016-09-14T13:59:11.303Z,952.35
2016-09-14T14:00:12.785Z,952.32
2016-09-14T14:01:14.123Z,952.27
2016-09-14T14:02:12.227Z,952.31
2016-09-14T14:03:13.220Z,952.26
2016-09-14T14:04:22.310Z,952.27
2016-09-14T14:05:17.733Z,952.25
2016-09-14T14:06:12.045Z,952.22
2016-09-14T14:07:22.000Z,952.22
2016-09-14T14:08:14.377Z,952.18
2016-09-14T14:09:17.663Z,952.20
2016-09-14T14:10:15.109Z,952.23
2016-09-14T14:11:17.487Z,952.19
2016-09-14T14:12:15.006Z,952.17
2016-09-14T14:13:15.027Z,952.14
2016-09-14T14:14:13.089Z,952.15
2016-09-14T14:15:15.145Z,952.14
2016-09-14T14:16:16.315Z,952.15
2016-09-14T14:17:14.954Z,952.14
2016-09-14T14:18:13.721Z,952.14
2016-09-14T14:19:13.485Z,952.18
2016-09-14T14:20:17.591Z,952.15
2016-09-14T14:21:15.299Z,952.20
2016-09-14T14:22:17.591Z,952.16
2016-09-14T14:23:15.199Z,952.22
2016-09-14T14:24:17.630Z,952.18
2016-09-14T14:25:12.029Z,952.22
2016-09-14T14:26:17.523Z,952.20
2016-09-14T14:27:16.341Z,952.17
2016-09-14T14:28:23.626Z,952.16
2016-09-14T14:29:13.491Z,952.15
2016-09-14T14:30:14.672Z,952.15
2016-09-14T14:31:16.809Z,952.18
2016-09-14T14:32:12.601Z,952.13
2016-09-14T14:33:17.030Z,952.16
2016-09-14T14:34:17.645Z,952.11
2016-09-14T14:35:12.122Z,952.13
2016-09-14T14:36:14.677Z,952.16
2016-09-14T14:37:17.385Z,952.17
2016-09-14T14:38:17.139Z,952.18
2016-09-14T14:39:13.265Z,952.21
2016-09-14T14:40:16.886Z,952.18
2016-09-14T14:41:18.374Z,952.19
2016-09-14T14:42:27.928Z,952.13
2016-09-14T14:43:17.389Z,952.15
2016-09-14T14:44:16.970Z,952.17
2016-09-14T14:45:17.005Z,952.14
2016-09-14T14:46:14.742Z,952.14
2016-09-14T14:47:14.175Z,952.07
2016-09-14T14:48:19.100Z,952.10
2016-09-14T14:49:13.234Z,952.11
2016-09-14T14:50:17.004Z,952.06
2016-09-14T14:51:17.819Z,952.04
2016-09-14T14:52:12.168Z,952.12
2016-09-14T14:53:13.979Z,952.04
2016-09-14T14:54:17.522Z,952.03
2016-09-14T14:55:17.545Z,952.05
2016-09-14T14:56:17.000Z,952.00
2016-09-14T14:57:14.510Z,952.01
2016-09-14T14:58:18.130Z,951.99
2016-09-14T14:59:22.158Z,952.05
2016-09-14T15:00:16.991Z,951.99
2016-09-14T15:01:17.108Z,952.01
2016-09-14T15:02:17.703Z,951.94
2016-09-14T15:03:13.439Z,952.01
2016-09-14T15:04:17.004Z,951.98
2016-09-14T15:05:17.012Z,951.95
2016-09-14T15:06:23.430Z,951.94
2016-09-14T15:07:13.675Z,951.91
2016-09-14T15:08:14.222Z,951.94
2016-09-14T15:09:16.940Z,952.00
2016-09-14T15:10:19.004Z,951.94
2016-09-14T15:11:12.879Z,951.98
2016-09-14T15:12:12.385Z,952.00
2016-09-14T15:13:17.520Z,952.04
2016-09-14T15:14:12.010Z,952.01
2016-09-14T15:15:12.966Z,951.94